createdAt,value
2023-02-14T00:00:59.010Z,20.83
2023-02-14T00:03:25.985Z,20.65
2023-02-14T00:05:52.692Z,21.70
2023-02-14T00:08:19.504Z,23.17
2023-02-14T00:10:46.421Z,22.17
2023-02-14T00:13:13.257Z,22.60
2023-02-14T00:15:40.066Z,21.35
2023-02-14T00:18:06.880Z,21.60
2023-02-14T00:20:33.808Z,22.65
2023-02-14T00:23:00.976Z,21.58
2023-02-14T00:25:27.779Z,20.60
2023-02-14T00:27:55.622Z,22.00
2023-02-14T00:30:22.529Z,21.40
2023-02-14T00:32:49.401Z,21.88
2023-02-14T00:35:16.289Z,22.30
2023-02-14T00:37:43.011Z,22.98
2023-02-14T00:40:09.927Z,22.48
2023-02-14T00:42:36.590Z,22.35
2023-02-14T00:45:03.743Z,23.15
2023-02-14T00:47:30.446Z,22.92
2023-02-14T00:50:02.688Z,23.02
2023-02-14T00:52:30.597Z,22.10
2023-02-14T00:54:57.293Z,21.45
2023-02-14T00:57:23.984Z,23.00
2023-02-14T00:59:50.655Z,23.65
2023-02-14T01:02:17.397Z,23.08
2023-02-14T01:04:44.277Z,22.05
2023-02-14T01:07:10.975Z,23.70
2023-02-14T01:09:37.644Z,23.08
2023-02-14T01:12:04.648Z,22.27
2023-02-14T01:14:31.397Z,20.73
2023-02-14T01:16:58.129Z,22.55
2023-02-14T01:19:25.996Z,20.83
2023-02-14T01:21:52.680Z,23.42
2023-02-14T01:24:19.372Z,21.70
2023-02-14T01:26:46.061Z,21.00
2023-02-14T01:29:12.784Z,22.13
2023-02-14T01:31:39.686Z,20.83
2023-02-14T01:34:06.648Z,21.98
2023-02-14T01:36:36.137Z,20.50
2023-02-14T01:39:05.710Z,20.60
2023-02-14T01:41:33.526Z,21.67
2023-02-14T01:44:02.313Z,21.50
2023-02-14T01:46:30.659Z,21.50
2023-02-14T01:49:04.148Z,21.90
2023-02-14T01:51:31.234Z,21.02
2023-02-14T01:53:57.977Z,19.73
2023-02-14T01:56:28.140Z,21.25
2023-02-14T01:58:56.773Z,20.88
2023-02-14T02:01:23.501Z,20.27
2023-02-14T02:03:55.406Z,22.05
2023-02-14T02:06:38.983Z,21.70
2023-02-14T02:09:35.966Z,18.63
2023-02-14T02:12:02.857Z,18.23
2023-02-14T02:14:29.550Z,17.63
2023-02-14T02:17:08.508Z,20.02
2023-02-14T02:19:47.169Z,19.33
2023-02-14T02:22:19.469Z,19.75
2023-02-14T02:24:49.303Z,20.02
2023-02-14T02:27:38.717Z,20.77
2023-02-14T02:30:29.384Z,21.27
2023-02-14T02:33:06.846Z,21.08
2023-02-14T02:35:36.464Z,24.85
2023-02-14T02:38:14.791Z,23.33
2023-02-14T02:41:12.756Z,21.60
2023-02-14T02:43:54.155Z,23.52
2023-02-14T02:46:49.027Z,22.45
2023-02-14T02:49:55.651Z,24.40
2023-02-14T02:53:02.875Z,22.77
2023-02-14T02:56:08.737Z,23.05
2023-02-14T02:58:37.949Z,24.48
2023-02-14T03:01:11.784Z,25.00
2023-02-14T03:03:56.846Z,26.58
2023-02-14T03:06:23.501Z,24.95
2023-02-14T03:08:50.187Z,26.40
2023-02-14T03:11:16.852Z,24.60
2023-02-14T03:13:48.106Z,25.60
2023-02-14T03:16:27.237Z,24.92
2023-02-14T03:19:10.726Z,24.35
2023-02-14T03:21:41.873Z,24.02
2023-02-14T03:24:28.533Z,23.48
2023-02-14T03:27:06.314Z,23.05
2023-02-14T03:29:43.530Z,23.85
2023-02-14T03:32:25.784Z,25.08
2023-02-14T03:35:00.509Z,23.02
2023-02-14T03:37:30.864Z,22.33
2023-02-14T03:40:10.196Z,24.38
2023-02-14T03:42:51.750Z,24.17
2023-02-14T03:45:27.821Z,23.65
2023-02-14T03:47:56.714Z,23.35
2023-02-14T03:50:23.386Z,25.65
2023-02-14T03:52:50.945Z,21.75
2023-02-14T03:55:19.931Z,24.67
2023-02-14T03:57:48.249Z,21.80
2023-02-14T04:00:15.914Z,22.83
2023-02-14T04:02:54.658Z,23.45
2023-02-14T04:05:23.915Z,22.35
2023-02-14T04:07:56.185Z,23.20
2023-02-14T04:10:23.040Z,23.65
2023-02-14T04:12:49.917Z,25.48
2023-02-14T04:15:16.758Z,22.48
2023-02-14T04:18:02.390Z,25.15
2023-02-14T04:20:29.305Z,22.63
2023-02-14T04:22:56.175Z,22.85
2023-02-14T04:25:22.994Z,23.30
2023-02-14T04:27:49.681Z,23.63
2023-02-14T04:30:18.052Z,23.50
2023-02-14T04:32:44.865Z,23.17
2023-02-14T04:35:11.571Z,22.70
2023-02-14T04:37:38.400Z,23.70
2023-02-14T04:40:05.728Z,23.52
2023-02-14T04:42:32.408Z,22.67
2023-02-14T04:44:59.187Z,22.15
2023-02-14T04:47:26.004Z,22.85
2023-02-14T04:49:52.681Z,23.10
2023-02-14T04:52:19.385Z,23.05
2023-02-14T04:54:46.108Z,23.45
2023-02-14T04:57:12.807Z,25.25
2023-02-14T04:59:39.561Z,22.90
2023-02-14T05:02:06.421Z,22.35
2023-02-14T05:04:33.115Z,24.67
2023-02-14T05:06:59.844Z,22.58
2023-02-14T05:09:26.685Z,25.17
2023-02-14T05:11:53.369Z,23.42
2023-02-14T05:14:20.073Z,23.70
2023-02-14T05:16:46.892Z,23.20
2023-02-14T05:19:13.653Z,22.70
2023-02-14T05:21:40.337Z,22.02
2023-02-14T05:24:07.232Z,23.85
2023-02-14T05:26:33.885Z,24.55
2023-02-14T05:29:00.554Z,22.70
2023-02-14T05:31:27.302Z,22.50
2023-02-14T05:33:54.028Z,21.92
2023-02-14T05:36:20.812Z,22.42
2023-02-14T05:38:47.591Z,23.85
2023-02-14T05:41:14.278Z,23.83
2023-02-14T05:43:40.968Z,25.23
2023-02-14T05:46:07.774Z,22.05
2023-02-14T05:48:34.565Z,25.20
2023-02-14T05:51:07.696Z,25.67
2023-02-14T05:53:34.438Z,24.67
2023-02-14T05:56:01.189Z,22.48
2023-02-14T05:58:27.970Z,23.73
2023-02-14T06:00:56.285Z,22.15
2023-02-14T06:03:23.101Z,22.10
2023-02-14T06:05:49.764Z,23.42
2023-02-14T06:08:16.454Z,23.67
2023-02-14T06:10:43.208Z,23.42
2023-02-14T06:13:10.611Z,21.92
2023-02-14T06:15:37.659Z,23.80
2023-02-14T06:18:04.776Z,22.92
2023-02-14T06:20:31.494Z,23.33
2023-02-14T06:22:58.184Z,24.48
2023-02-14T06:25:25.050Z,23.80
2023-02-14T06:27:52.005Z,20.73
2023-02-14T06:30:18.761Z,22.88
2023-02-14T06:32:45.473Z,22.30
2023-02-14T06:35:13.690Z,21.63
2023-02-14T06:37:42.077Z,21.83
2023-02-14T06:40:09.861Z,22.10
2023-02-14T06:42:36.828Z,25.20
2023-02-14T06:45:04.495Z,22.08
2023-02-14T06:47:32.767Z,22.33
2023-02-14T06:50:01.606Z,22.23
2023-02-14T06:52:28.301Z,21.52
2023-02-14T06:54:54.962Z,24.55
2023-02-14T06:57:21.623Z,21.17
2023-02-14T06:59:48.314Z,23.05
2023-02-14T07:02:15.135Z,23.85
2023-02-14T07:04:41.860Z,25.75
2023-02-14T07:07:08.619Z,25.83
2023-02-14T07:09:35.283Z,26.15
2023-02-14T07:12:02.052Z,24.52
2023-02-14T07:14:28.781Z,26.48
2023-02-14T07:16:55.454Z,23.85
2023-02-14T07:19:22.100Z,24.13
2023-02-14T07:21:48.819Z,25.10
2023-02-14T07:24:15.541Z,24.50
2023-02-14T07:26:42.258Z,23.88
2023-02-14T07:29:09.262Z,22.83
2023-02-14T07:31:36.021Z,26.10
2023-02-14T07:34:03.052Z,21.38
2023-02-14T07:36:29.765Z,21.70
2023-02-14T07:38:57.101Z,21.88
2023-02-14T07:41:24.034Z,21.77
2023-02-14T07:43:50.838Z,22.50
2023-02-14T07:46:18.318Z,23.25
2023-02-14T07:48:45.109Z,22.88
2023-02-14T07:51:11.888Z,23.58
2023-02-14T07:53:38.596Z,23.25
2023-02-14T07:56:05.501Z,24.75
2023-02-14T07:58:32.293Z,24.02
2023-02-14T08:00:59.284Z,26.48
2023-02-14T08:03:26.206Z,25.75
2023-02-14T08:05:59.113Z,24.52
2023-02-14T08:08:26.878Z,26.02
2023-02-14T08:10:53.575Z,23.63
2023-02-14T08:13:20.442Z,26.30
2023-02-14T08:16:05.641Z,25.30
2023-02-14T08:18:33.880Z,26.73
2023-02-14T08:21:00.991Z,25.25
2023-02-14T08:23:28.092Z,26.70
2023-02-14T08:25:54.985Z,27.38
2023-02-14T08:28:24.565Z,28.30
2023-02-14T08:30:51.503Z,27.92
2023-02-14T08:33:18.441Z,28.17
2023-02-14T08:35:45.187Z,25.52
2023-02-14T08:38:11.940Z,27.85
2023-02-14T08:40:38.857Z,28.60
2023-02-14T08:43:06.291Z,27.88
2023-02-14T08:45:33.092Z,28.83
2023-02-14T08:48:07.187Z,29.23
2023-02-14T08:53:00.661Z,24.98
2023-02-14T08:55:27.738Z,29.63
2023-02-14T08:57:58.111Z,28.98
2023-02-14T09:00:24.996Z,29.60
2023-02-14T09:02:52.639Z,30.20
2023-02-14T09:05:19.824Z,31.15
2023-02-14T09:07:46.530Z,32.15
2023-02-14T09:10:13.295Z,33.85
2023-02-14T09:12:41.075Z,35.13
2023-02-14T09:15:09.358Z,34.90
2023-02-14T09:17:36.919Z,33.13
2023-02-14T09:20:07.946Z,34.13
2023-02-14T09:22:34.618Z,33.30
2023-02-14T09:25:01.411Z,32.42
2023-02-14T09:27:28.227Z,31.55
2023-02-14T09:29:54.971Z,31.17
2023-02-14T09:32:21.998Z,30.95
2023-02-14T09:34:48.744Z,31.88
2023-02-14T09:37:15.438Z,33.85
2023-02-14T09:39:42.140Z,33.42
2023-02-14T09:42:17.686Z,34.28
2023-02-14T09:44:51.641Z,33.88
2023-02-14T09:49:51.452Z,33.53
2023-02-14T09:52:19.788Z,31.88
2023-02-14T09:54:49.193Z,32.13
2023-02-14T09:57:41.397Z,34.83
2023-02-14T10:00:38.182Z,31.98
2023-02-14T10:03:49.087Z,31.40
2023-02-14T10:06:43.632Z,29.88
2023-02-14T10:09:39.247Z,30.23
2023-02-14T10:12:05.948Z,29.05
2023-02-14T10:14:36.105Z,28.27
2023-02-14T10:17:07.255Z,27.73
2023-02-14T10:20:14.651Z,23.75
2023-02-14T10:22:43.564Z,24.60
2023-02-14T10:25:14.666Z,24.15
2023-02-14T10:27:44.678Z,24.45
2023-02-14T10:30:19.433Z,23.58
2023-02-14T10:32:47.064Z,23.15
2023-02-14T10:35:44.278Z,22.42
2023-02-14T10:38:41.852Z,23.40
2023-02-14T10:41:20.683Z,22.30
2023-02-14T10:44:26.910Z,22.30
2023-02-14T10:47:01.685Z,24.20
2023-02-14T10:49:34.510Z,22.75
2023-02-14T10:52:26.853Z,21.88
2023-02-14T10:55:00.929Z,20.60
2023-02-14T11:00:08.466Z,21.02
2023-02-14T11:02:39.966Z,21.13
2023-02-14T11:05:06.967Z,20.10
2023-02-14T11:07:33.790Z,20.40
2023-02-14T11:10:00.489Z,20.27
2023-02-14T11:12:35.747Z,17.52
2023-02-14T11:15:32.746Z,17.15
2023-02-14T11:18:10.225Z,12.30
2023-02-14T11:20:36.973Z,12.30
2023-02-14T11:23:26.403Z,13.18
2023-02-14T11:25:55.481Z,13.23
2023-02-14T11:28:22.259Z,13.25
2023-02-14T11:30:50.314Z,12.65
2023-02-14T11:33:29.724Z,12.35
2023-02-14T11:35:56.392Z,12.43
2023-02-14T11:38:31.409Z,11.07
2023-02-14T11:40:58.793Z,11.20
2023-02-14T11:43:37.172Z,11.50
2023-02-14T11:46:14.993Z,11.85
2023-02-14T11:48:59.180Z,12.27
2023-02-14T11:51:41.950Z,11.00
2023-02-14T11:54:12.629Z,10.02
2023-02-14T11:56:51.077Z,11.02
2023-02-14T11:59:44.660Z,12.23
2023-02-14T12:02:32.876Z,9.25
2023-02-14T12:05:05.262Z,9.85
2023-02-14T12:07:38.366Z,9.43
2023-02-14T12:10:11.288Z,10.23
2023-02-14T12:12:38.055Z,8.35
2023-02-14T12:15:36.767Z,8.50
2023-02-14T12:18:28.976Z,10.25
2023-02-14T12:21:01.511Z,8.43
2023-02-14T12:23:41.120Z,8.63
2023-02-14T12:26:20.126Z,8.65
2023-02-14T12:29:26.470Z,8.02
2023-02-14T12:31:53.618Z,8.45
2023-02-14T12:34:20.735Z,8.73
2023-02-14T12:37:15.218Z,7.95
2023-02-14T12:42:52.446Z,7.10
2023-02-14T12:45:24.908Z,7.65
2023-02-14T12:48:16.184Z,6.60
2023-02-14T12:50:52.229Z,7.97
2023-02-14T12:53:40.183Z,8.80
2023-02-14T12:56:16.201Z,8.20
2023-02-14T12:58:48.815Z,7.00
2023-02-14T13:01:40.309Z,8.05
2023-02-14T13:04:25.929Z,7.93
2023-02-14T13:06:58.745Z,7.47
2023-02-14T13:09:46.208Z,8.02
2023-02-14T13:12:39.082Z,6.60
2023-02-14T13:15:06.904Z,8.00
2023-02-14T13:18:02.562Z,7.68
2023-02-14T13:20:39.473Z,7.18
2023-02-14T13:23:33.058Z,8.48
2023-02-14T13:26:03.829Z,8.17
2023-02-14T13:28:30.732Z,6.90
2023-02-14T13:30:58.509Z,7.80
2023-02-14T13:33:32.524Z,7.10
2023-02-14T13:36:02.559Z,9.15
2023-02-14T13:38:31.683Z,6.88
2023-02-14T13:40:59.636Z,7.10
2023-02-14T13:43:45.408Z,7.28
2023-02-14T13:46:12.950Z,8.20
2023-02-14T13:48:39.718Z,7.18
2023-02-14T13:51:10.569Z,7.63
2023-02-14T13:53:45.111Z,7.07
2023-02-14T13:56:11.762Z,9.52
2023-02-14T13:58:55.092Z,7.63
2023-02-14T14:01:29.258Z,8.77
2023-02-14T14:04:17.510Z,11.43
2023-02-14T14:07:03.145Z,5.95
2023-02-14T14:09:42.249Z,5.57
2023-02-14T14:12:27.091Z,7.15
2023-02-14T14:15:05.874Z,4.65
2023-02-14T14:17:32.616Z,6.10
2023-02-14T14:19:59.719Z,5.70
2023-02-14T14:22:26.755Z,7.00
2023-02-14T14:24:58.348Z,7.45
2023-02-14T14:27:26.393Z,8.88
2023-02-14T14:29:53.128Z,8.68
2023-02-14T14:32:30.299Z,9.13
2023-02-14T14:35:02.765Z,8.23
2023-02-14T14:37:35.215Z,9.50
2023-02-14T14:40:06.492Z,9.23
2023-02-14T14:42:41.983Z,10.07
2023-02-14T14:45:29.419Z,8.82
2023-02-14T14:47:58.046Z,7.65
2023-02-14T14:50:28.589Z,8.23
2023-02-14T14:53:01.922Z,6.85
2023-02-14T14:55:34.293Z,7.13
2023-02-14T14:58:05.309Z,8.07
2023-02-14T15:00:35.578Z,7.57
2023-02-14T15:03:05.326Z,6.65
2023-02-14T15:05:37.337Z,5.63
2023-02-14T15:08:23.356Z,7.72
2023-02-14T15:11:02.292Z,7.40
2023-02-14T15:13:57.523Z,7.45
2023-02-14T15:16:29.474Z,6.57
2023-02-14T15:19:20.430Z,5.60
2023-02-14T15:21:47.173Z,6.85
2023-02-14T15:24:14.997Z,7.30
2023-02-14T15:26:44.088Z,6.85
2023-02-14T15:29:28.704Z,6.50
2023-02-14T15:31:57.494Z,5.68
2023-02-14T15:34:32.760Z,5.88
2023-02-14T15:37:03.940Z,5.88
2023-02-14T15:39:41.478Z,6.20
2023-02-14T15:42:22.678Z,5.03
2023-02-14T15:44:49.454Z,6.97
2023-02-14T15:47:16.129Z,4.97
2023-02-14T15:49:43.617Z,5.55
2023-02-14T15:52:14.179Z,5.78
2023-02-14T15:54:45.306Z,6.47
2023-02-14T15:57:25.874Z,5.88
2023-02-14T15:59:52.742Z,6.40
2023-02-14T16:02:37.758Z,6.75
2023-02-14T16:05:18.787Z,6.95
2023-02-14T16:08:06.532Z,7.60
2023-02-14T16:10:34.912Z,7.32
2023-02-14T16:13:14.769Z,7.38
2023-02-14T16:15:59.089Z,7.20
2023-02-14T16:18:56.848Z,7.28
2023-02-14T16:21:28.026Z,7.47
2023-02-14T16:24:07.087Z,7.45
2023-02-14T16:26:35.062Z,9.30
2023-02-14T16:29:08.483Z,8.77
2023-02-14T16:31:35.921Z,8.63
2023-02-14T16:34:02.659Z,8.30
2023-02-14T16:36:30.327Z,9.98
2023-02-14T16:38:57.290Z,8.45
2023-02-14T16:41:26.166Z,8.90
2023-02-14T16:43:53.888Z,8.18
2023-02-14T16:46:26.155Z,8.10
2023-02-14T16:48:53.194Z,9.43
2023-02-14T16:51:31.331Z,8.73
2023-02-14T16:53:59.355Z,11.00
2023-02-14T16:56:41.569Z,10.38
2023-02-14T16:59:08.344Z,11.15
2023-02-14T17:01:35.196Z,10.88
2023-02-14T17:04:02.060Z,12.13
2023-02-14T17:06:29.731Z,10.77
2023-02-14T17:08:56.633Z,10.50
2023-02-14T17:11:23.672Z,12.05
2023-02-14T17:13:50.588Z,10.48
2023-02-14T17:16:17.332Z,11.13
2023-02-14T17:18:48.903Z,10.50
2023-02-14T17:21:16.318Z,10.57
2023-02-14T17:23:43.108Z,11.90
2023-02-14T17:26:11.198Z,13.10
2023-02-14T17:28:38.091Z,14.10
2023-02-14T17:31:05.148Z,14.45
2023-02-14T17:33:32.778Z,14.43
2023-02-14T17:36:12.078Z,13.98
2023-02-14T17:38:39.468Z,13.77
2023-02-14T17:41:17.094Z,14.88
2023-02-14T17:43:44.637Z,14.80
2023-02-14T17:46:14.094Z,13.57
2023-02-14T17:48:41.624Z,13.30
2023-02-14T17:51:09.389Z,13.38
2023-02-14T17:53:36.143Z,13.63
2023-02-14T17:56:06.826Z,13.00
2023-02-14T17:58:33.518Z,11.57
2023-02-14T18:01:11.576Z,13.00
2023-02-14T18:03:38.876Z,11.73
2023-02-14T18:06:06.269Z,13.93
2023-02-14T18:08:35.053Z,13.38
2023-02-14T18:11:08.622Z,13.52
2023-02-14T18:13:35.916Z,13.57
2023-02-14T18:16:03.790Z,13.98
2023-02-14T18:18:31.576Z,13.32
2023-02-14T18:20:59.891Z,14.40
2023-02-14T18:23:27.025Z,14.15
2023-02-14T18:25:55.721Z,16.77
2023-02-14T18:28:22.817Z,15.82
2023-02-14T18:30:49.593Z,16.52
2023-02-14T18:33:17.732Z,14.98
2023-02-14T18:35:45.095Z,17.92
2023-02-14T18:38:12.540Z,18.50
2023-02-14T18:40:39.910Z,18.42
2023-02-14T18:43:06.749Z,19.77
2023-02-14T18:45:37.547Z,20.00
2023-02-14T18:48:04.674Z,22.35
2023-02-14T18:50:31.571Z,20.75
2023-02-14T18:52:58.297Z,21.08
2023-02-14T18:55:25.086Z,22.05
2023-02-14T18:57:51.777Z,20.75
2023-02-14T19:00:18.858Z,20.23
2023-02-14T19:02:47.351Z,21.73
2023-02-14T19:05:14.616Z,21.70
2023-02-14T19:07:41.383Z,24.25
2023-02-14T19:10:08.998Z,21.33
2023-02-14T19:12:35.736Z,24.02
2023-02-14T19:15:03.441Z,23.10
2023-02-14T19:17:30.186Z,24.30
2023-02-14T19:19:57.260Z,24.35
2023-02-14T19:22:24.011Z,22.65
2023-02-14T19:24:53.486Z,25.42
2023-02-14T19:27:21.515Z,24.38
2023-02-14T19:29:48.332Z,23.73
2023-02-14T19:32:15.160Z,24.02
2023-02-14T19:34:41.884Z,24.33
2023-02-14T19:37:08.594Z,23.90
2023-02-14T19:39:35.319Z,24.20
2023-02-14T19:42:03.947Z,27.13
2023-02-14T19:44:31.292Z,28.42
2023-02-14T19:47:00.342Z,25.88
2023-02-14T19:49:28.188Z,26.15
2023-02-14T19:51:55.438Z,25.70
2023-02-14T19:54:23.771Z,27.70
2023-02-14T19:56:50.505Z,25.08
2023-02-14T19:59:20.295Z,28.45
2023-02-14T20:01:54.817Z,25.70
2023-02-14T20:04:23.538Z,25.70
2023-02-14T20:06:50.313Z,26.42
2023-02-14T20:09:17.641Z,27.13
2023-02-14T20:11:52.036Z,25.52
2023-02-14T20:14:26.128Z,26.30
2023-02-14T20:19:21.070Z,23.67
2023-02-14T20:21:48.658Z,26.98
2023-02-14T20:24:17.342Z,27.02
2023-02-14T20:26:44.181Z,24.55
2023-02-14T20:29:11.166Z,27.90
2023-02-14T20:31:41.564Z,25.92
2023-02-14T20:34:08.453Z,25.77
2023-02-14T20:36:35.250Z,24.65
2023-02-14T20:39:03.219Z,24.02
2023-02-14T20:41:30.097Z,23.63
2023-02-14T20:44:04.682Z,24.77
2023-02-14T20:46:31.604Z,23.60
2023-02-14T20:48:58.379Z,27.50
2023-02-14T20:51:25.530Z,24.65
2023-02-14T20:53:52.757Z,24.63
2023-02-14T20:56:19.950Z,26.20
2023-02-14T20:58:46.618Z,25.38
2023-02-14T21:01:14.710Z,25.58
2023-02-14T21:03:42.385Z,24.40
2023-02-14T21:06:11.532Z,27.17
2023-02-14T21:08:38.358Z,27.65
2023-02-14T21:11:05.619Z,27.17
2023-02-14T21:13:32.494Z,25.65
2023-02-14T21:16:09.176Z,24.70
2023-02-14T21:18:37.613Z,26.58
2023-02-14T21:21:08.516Z,25.40
2023-02-14T21:23:35.185Z,25.83
2023-02-14T21:26:01.885Z,26.48
2023-02-14T21:28:28.907Z,25.15
2023-02-14T21:31:05.362Z,25.15
2023-02-14T21:33:32.947Z,27.05
2023-02-14T21:36:06.391Z,24.80
2023-02-14T21:38:33.185Z,23.95
2023-02-14T21:41:02.410Z,23.00
2023-02-14T21:43:29.375Z,24.13
2023-02-14T21:45:56.938Z,21.80
2023-02-14T21:48:42.417Z,23.17
2023-02-14T21:51:09.165Z,22.25
2023-02-14T21:53:36.256Z,23.38
2023-02-14T21:56:16.430Z,25.25
2023-02-14T21:58:44.489Z,24.20
2023-02-14T22:01:18.866Z,24.73
2023-02-14T22:03:45.734Z,23.80
2023-02-14T22:06:15.390Z,26.55
2023-02-14T22:08:42.297Z,22.58
2023-02-14T22:11:13.797Z,24.58
2023-02-14T22:13:40.563Z,24.88
2023-02-14T22:16:09.109Z,23.00
2023-02-14T22:18:35.827Z,24.48
2023-02-14T22:21:07.778Z,22.98
2023-02-14T22:23:34.534Z,23.00
2023-02-14T22:26:14.671Z,26.77
2023-02-14T22:28:44.817Z,28.80
2023-02-14T22:31:14.641Z,32.45
2023-02-14T22:33:43.625Z,29.45
2023-02-14T22:36:13.557Z,30.27
2023-02-14T22:38:40.356Z,26.02
2023-02-14T22:41:20.796Z,25.77
2023-02-14T22:43:47.556Z,27.10
2023-02-14T22:46:22.600Z,24.77
2023-02-14T22:48:49.745Z,24.13
2023-02-14T22:51:36.060Z,26.65
2023-02-14T22:54:04.771Z,26.90
2023-02-14T22:56:34.254Z,25.85
2023-02-14T22:59:05.759Z,26.95
2023-02-14T23:01:32.980Z,27.10
2023-02-14T23:04:00.681Z,25.92
2023-02-14T23:06:28.507Z,25.48
2023-02-14T23:08:55.433Z,23.25
2023-02-14T23:11:26.488Z,23.52
2023-02-14T23:14:14.822Z,22.40
2023-02-14T23:17:00.118Z,22.38
2023-02-14T23:19:49.936Z,22.38
2023-02-14T23:22:28.030Z,24.65
2023-02-14T23:24:57.371Z,23.77
2023-02-14T23:27:31.429Z,23.88
2023-02-14T23:32:27.885Z,21.33
2023-02-14T23:34:54.631Z,23.92
2023-02-14T23:37:21.300Z,22.75
2023-02-14T23:39:47.986Z,21.83
2023-02-14T23:42:14.844Z,23.27
2023-02-14T23:44:42.899Z,21.42
2023-02-14T23:47:10.291Z,23.95
2023-02-14T23:49:38.772Z,21.85
2023-02-14T23:52:06.984Z,22.13
2023-02-14T23:54:33.868Z,20.27
2023-02-14T23:57:00.635Z,21.30
2023-02-14T23:59:27.470Z,22.10
